createdAt,value
2018-05-03T00:02:23.723Z,36.40
2018-05-03T00:04:51.506Z,36.50
2018-05-03T00:07:19.272Z,36.50
2018-05-03T00:09:46.356Z,36.50
2018-05-03T00:12:13.352Z,36.50
2018-05-03T00:14:40.346Z,36.50
2018-05-03T00:17:08.090Z,36.50
2018-05-03T00:19:35.153Z,36.50
2018-05-03T00:22:02.164Z,36.60
2018-05-03T00:24:29.152Z,36.60
2018-05-03T00:26:56.138Z,36.50
2018-05-03T00:29:23.135Z,36.50
2018-05-03T00:31:50.120Z,36.50
2018-05-03T00:34:17.127Z,36.60
2018-05-03T00:36:44.124Z,36.50
2018-05-03T00:39:11.119Z,36.50
2018-05-03T00:41:38.126Z,36.50
2018-05-03T00:44:05.884Z,36.60
2018-05-03T00:46:32.872Z,36.60
2018-05-03T00:48:59.901Z,36.60
2018-05-03T00:51:26.972Z,36.60
2018-05-03T00:53:53.966Z,36.60
2018-05-03T00:56:20.966Z,36.70
2018-05-03T00:58:47.966Z,36.70
2018-05-03T01:01:15.161Z,36.60
2018-05-03T01:03:42.164Z,36.70
2018-05-03T01:06:09.149Z,37.30
2018-05-03T01:08:36.156Z,36.70
2018-05-03T01:11:03.347Z,36.60
2018-05-03T01:13:30.353Z,36.70
2018-05-03T01:15:57.343Z,36.60
2018-05-03T01:18:24.336Z,36.50
2018-05-03T01:20:51.334Z,36.50
2018-05-03T01:23:18.338Z,36.40
2018-05-03T01:25:45.335Z,36.30
2018-05-03T01:28:12.330Z,36.30
2018-05-03T01:30:39.534Z,36.20
2018-05-03T01:33:06.534Z,36.20
2018-05-03T01:35:33.519Z,36.20
2018-05-03T01:38:00.504Z,36.20
2018-05-03T01:40:27.723Z,36.20
2018-05-03T01:42:54.720Z,36.20
2018-05-03T01:45:21.714Z,36.20
2018-05-03T01:47:48.720Z,36.20
2018-05-03T01:50:15.912Z,36.20
2018-05-03T01:52:42.907Z,36.20
2018-05-03T01:55:09.904Z,36.20
2018-05-03T01:57:36.927Z,36.20
2018-05-03T02:00:04.730Z,36.70
2018-05-03T02:02:31.703Z,36.20
2018-05-03T02:04:58.697Z,36.20
2018-05-03T02:07:25.679Z,36.20
2018-05-03T02:09:52.702Z,36.10
2018-05-03T02:12:19.704Z,36.10
2018-05-03T02:14:46.700Z,36.10
2018-05-03T02:17:13.688Z,36.10
2018-05-03T02:19:40.689Z,36.10
2018-05-03T02:22:07.680Z,36.10
2018-05-03T02:24:36.182Z,36.10
2018-05-03T02:27:03.188Z,36.10
2018-05-03T02:29:30.322Z,36.10
2018-05-03T02:31:57.352Z,36.10
2018-05-03T02:34:24.339Z,36.10
2018-05-03T02:36:51.346Z,36.10
2018-05-03T02:39:19.096Z,36.20
2018-05-03T02:41:46.097Z,36.20
2018-05-03T02:44:13.103Z,36.10
2018-05-03T02:46:40.083Z,36.20
2018-05-03T02:49:07.094Z,36.20
2018-05-03T02:51:34.087Z,36.10
2018-05-03T02:54:01.111Z,36.10
2018-05-03T02:56:28.102Z,36.10
2018-05-03T02:58:55.098Z,36.10
2018-05-03T03:01:22.163Z,36.10
2018-05-03T03:03:49.167Z,36.10
2018-05-03T03:06:16.168Z,36.10
2018-05-03T03:08:43.167Z,36.00
2018-05-03T03:11:10.347Z,36.00
2018-05-03T03:13:37.331Z,36.10
2018-05-03T03:16:04.321Z,36.10
2018-05-03T03:18:31.318Z,36.10
2018-05-03T03:20:58.522Z,36.10
2018-05-03T03:23:25.516Z,36.10
2018-05-03T03:25:52.520Z,36.10
2018-05-03T03:28:19.528Z,36.10
2018-05-03T03:30:47.349Z,36.10
2018-05-03T03:33:14.335Z,36.10
2018-05-03T03:35:41.331Z,36.00
2018-05-03T03:38:08.359Z,36.00
2018-05-03T03:40:36.138Z,36.00
2018-05-03T03:43:03.125Z,36.00
2018-05-03T03:45:30.115Z,35.90
2018-05-03T03:47:57.122Z,36.00
2018-05-03T03:50:24.321Z,35.90
2018-05-03T03:52:51.692Z,36.00
2018-05-03T03:55:18.679Z,36.00
2018-05-03T03:57:45.672Z,36.00
2018-05-03T04:00:12.721Z,36.00
2018-05-03T04:02:39.715Z,36.10
2018-05-03T04:05:08.212Z,35.90
2018-05-03T04:07:35.217Z,35.90
2018-05-03T04:10:02.345Z,36.10
2018-05-03T04:12:29.348Z,36.10
2018-05-03T04:14:56.342Z,36.00
2018-05-03T04:17:23.352Z,36.00
2018-05-03T04:19:50.538Z,36.00
2018-05-03T04:22:17.630Z,36.10
2018-05-03T04:24:44.539Z,36.10
2018-05-03T04:27:11.538Z,35.40
2018-05-03T04:29:39.350Z,35.90
2018-05-03T04:32:06.335Z,35.90
2018-05-03T04:34:33.437Z,36.00
2018-05-03T04:37:00.355Z,35.00
2018-05-03T04:39:28.120Z,35.90
2018-05-03T04:41:55.120Z,35.80
2018-05-03T04:44:22.122Z,36.00
2018-05-03T04:46:49.901Z,35.30
2018-05-03T04:49:16.899Z,35.30
2018-05-03T04:51:43.918Z,35.10
2018-05-03T04:54:11.125Z,35.60
2018-05-03T04:56:38.092Z,35.70
2018-05-03T04:59:05.089Z,35.80
2018-05-03T05:01:32.088Z,35.90
2018-05-03T05:03:59.088Z,35.90
2018-05-03T05:06:26.089Z,36.00
2018-05-03T05:08:53.095Z,35.90
2018-05-03T05:11:20.230Z,36.20
2018-05-03T05:13:47.221Z,35.90
2018-05-03T05:16:14.217Z,36.10
2018-05-03T05:18:41.201Z,36.10
2018-05-03T05:21:08.381Z,36.10
2018-05-03T05:23:35.387Z,36.10
2018-05-03T05:26:02.406Z,36.10
2018-05-03T05:28:29.411Z,36.10
2018-05-03T05:30:56.561Z,36.20
2018-05-03T05:33:23.551Z,36.30
2018-05-03T05:35:50.551Z,36.40
2018-05-03T05:38:17.554Z,36.30
2018-05-03T05:40:44.754Z,36.30
2018-05-03T05:43:11.840Z,36.30
2018-05-03T05:45:38.840Z,36.30
2018-05-03T05:48:05.844Z,36.30
2018-05-03T05:50:32.981Z,36.30
2018-05-03T05:52:59.970Z,36.30
2018-05-03T05:55:26.964Z,36.30
2018-05-03T05:57:53.957Z,36.40
2018-05-03T06:00:21.144Z,37.10
2018-05-03T06:02:48.125Z,36.50
2018-05-03T06:05:16.696Z,37.00
2018-05-03T06:07:43.685Z,36.40
2018-05-03T06:10:10.755Z,36.30
2018-05-03T06:12:38.432Z,36.20
2018-05-03T06:15:05.428Z,36.10
2018-05-03T06:17:32.407Z,36.20
2018-05-03T06:19:59.564Z,36.20
2018-05-03T06:22:26.570Z,36.20
2018-05-03T06:24:53.567Z,36.20
2018-05-03T06:27:20.560Z,36.20
2018-05-03T06:29:47.747Z,36.20
2018-05-03T06:32:15.225Z,36.80
2018-05-03T06:34:42.221Z,36.20
2018-05-03T06:37:09.208Z,36.30
2018-05-03T06:39:36.373Z,36.20
2018-05-03T06:42:03.401Z,36.20
2018-05-03T06:44:30.407Z,36.30
2018-05-03T06:46:57.399Z,36.20
2018-05-03T06:49:24.389Z,34.70
2018-05-03T06:51:51.390Z,35.00
2018-05-03T06:54:18.374Z,35.80
2018-05-03T06:56:46.893Z,36.00
2018-05-03T06:59:13.880Z,36.00
2018-05-03T07:01:40.907Z,36.00
2018-05-03T07:04:08.031Z,36.00
2018-05-03T07:06:34.941Z,36.00
2018-05-03T07:09:01.933Z,36.10
2018-05-03T07:11:28.996Z,36.10
2018-05-03T07:13:55.996Z,36.10
2018-05-03T07:16:24.518Z,36.20
2018-05-03T07:18:51.508Z,36.20
2018-05-03T07:21:18.620Z,36.10
2018-05-03T07:23:45.669Z,36.20
2018-05-03T07:26:12.628Z,36.20
2018-05-03T07:28:39.611Z,36.20
2018-05-03T07:31:06.804Z,36.20
2018-05-03T07:33:33.793Z,36.00
2018-05-03T07:36:00.847Z,36.20
2018-05-03T07:38:27.839Z,36.30
2018-05-03T07:40:55.090Z,36.30
2018-05-03T07:43:22.002Z,36.30
2018-05-03T07:45:49.000Z,36.30
2018-05-03T07:48:16.004Z,36.40
2018-05-03T07:50:43.801Z,36.80
2018-05-03T07:53:10.802Z,36.40
2018-05-03T07:55:37.797Z,36.40
2018-05-03T07:58:04.784Z,36.40
2018-05-03T08:00:31.800Z,36.40
2018-05-03T08:02:58.789Z,36.40
2018-05-03T08:05:25.787Z,36.40
2018-05-03T08:07:52.801Z,36.40
2018-05-03T08:10:20.002Z,36.40
2018-05-03T08:12:47.015Z,36.30
2018-05-03T08:15:14.007Z,36.30
2018-05-03T08:17:41.017Z,36.30
2018-05-03T08:20:08.171Z,36.30
2018-05-03T08:22:35.175Z,36.30
2018-05-03T08:25:02.154Z,36.30
2018-05-03T08:27:29.150Z,36.90
2018-05-03T08:29:56.172Z,36.30
2018-05-03T08:32:23.194Z,36.30
2018-05-03T08:34:50.198Z,36.30
2018-05-03T08:37:17.199Z,36.30
2018-05-03T08:39:44.360Z,35.20
2018-05-03T08:42:11.340Z,33.60
2018-05-03T08:44:38.343Z,34.70
2018-05-03T08:47:05.340Z,35.30
2018-05-03T08:49:32.539Z,35.30
2018-05-03T08:51:59.529Z,35.40
2018-05-03T08:54:28.058Z,35.60
2018-05-03T08:56:55.053Z,35.50
2018-05-03T08:59:22.039Z,35.60
2018-05-03T09:01:49.881Z,35.70
2018-05-03T09:04:16.884Z,35.70
2018-05-03T09:06:43.887Z,36.30
2018-05-03T09:09:10.894Z,35.70
2018-05-03T09:11:37.874Z,35.70
2018-05-03T09:14:04.872Z,35.70
2018-05-03T09:16:31.854Z,35.60
2018-05-03T09:18:58.865Z,35.10
2018-05-03T09:21:26.017Z,35.50
2018-05-03T09:23:53.007Z,35.60
2018-05-03T09:26:20.038Z,35.60
2018-05-03T09:28:47.031Z,35.70
2018-05-03T09:31:14.196Z,35.70
2018-05-03T09:33:41.183Z,35.70
2018-05-03T09:36:08.174Z,35.80
2018-05-03T09:38:35.178Z,35.80
2018-05-03T09:41:02.176Z,35.80
2018-05-03T09:43:29.196Z,35.80
2018-05-03T09:45:57.020Z,35.80
2018-05-03T09:48:24.020Z,35.80
2018-05-03T09:50:51.832Z,35.80
2018-05-03T09:53:18.834Z,35.80
2018-05-03T09:55:45.822Z,35.70
2018-05-03T09:58:12.827Z,35.80
2018-05-03T10:00:40.605Z,35.60
2018-05-03T10:03:07.635Z,35.60
2018-05-03T10:05:34.632Z,35.60
2018-05-03T10:08:01.636Z,35.60
2018-05-03T10:10:29.419Z,35.90
2018-05-03T10:12:56.667Z,35.80
2018-05-03T10:15:23.665Z,35.80
2018-05-03T10:17:50.677Z,36.00
2018-05-03T10:20:18.668Z,35.90
2018-05-03T10:22:45.668Z,35.90
2018-05-03T10:25:12.667Z,35.90
2018-05-03T10:27:41.196Z,36.00
2018-05-03T10:30:08.258Z,36.00
2018-05-03T10:32:35.294Z,36.10
2018-05-03T10:35:02.308Z,36.00
2018-05-03T10:37:29.304Z,35.90
2018-05-03T10:39:56.455Z,36.00
2018-05-03T10:42:23.439Z,35.90
2018-05-03T10:44:50.440Z,35.90
2018-05-03T10:47:18.040Z,36.00
2018-05-03T10:49:45.251Z,36.00
2018-05-03T10:52:12.252Z,35.80
2018-05-03T10:54:39.251Z,35.90
2018-05-03T10:57:06.248Z,35.90
2018-05-03T10:59:34.063Z,36.30
2018-05-03T11:02:01.064Z,35.90
2018-05-03T11:04:28.851Z,36.00
2018-05-03T11:06:56.631Z,36.00
2018-05-03T11:09:23.638Z,36.00
2018-05-03T11:11:51.400Z,36.00
2018-05-03T11:14:19.187Z,36.10
2018-05-03T11:16:47.092Z,36.10
2018-05-03T11:19:14.079Z,36.10
2018-05-03T11:21:41.086Z,36.10
2018-05-03T11:24:08.070Z,36.10
2018-05-03T11:26:35.152Z,36.10
2018-05-03T11:29:02.144Z,36.10
2018-05-03T11:31:29.146Z,36.70
2018-05-03T11:33:56.171Z,36.20
2018-05-03T11:36:23.165Z,36.20
2018-05-03T11:38:50.166Z,36.10
2018-05-03T11:41:17.985Z,36.20
2018-05-03T11:43:44.965Z,36.10
2018-05-03T11:46:11.965Z,36.30
2018-05-03T11:48:38.971Z,36.30
2018-05-03T11:51:06.776Z,36.20
2018-05-03T11:53:33.768Z,36.10
2018-05-03T11:56:00.764Z,36.20
2018-05-03T11:58:27.768Z,36.30
2018-05-03T12:00:55.599Z,36.40
2018-05-03T12:03:22.622Z,36.30
2018-05-03T12:05:49.657Z,36.30
2018-05-03T12:08:16.659Z,36.30
2018-05-03T12:10:43.780Z,36.30
2018-05-03T12:13:10.800Z,36.20
2018-05-03T12:15:37.802Z,36.20
2018-05-03T12:18:04.810Z,36.30
2018-05-03T12:20:31.951Z,36.30
2018-05-03T12:22:58.989Z,36.20
2018-05-03T12:25:25.982Z,36.20
2018-05-03T12:27:52.980Z,36.30
2018-05-03T12:30:20.235Z,36.30
2018-05-03T12:32:47.989Z,36.30
2018-05-03T12:35:14.987Z,36.20
2018-05-03T12:37:41.985Z,36.30
2018-05-03T12:40:09.767Z,36.20
2018-05-03T12:42:36.764Z,36.30
2018-05-03T12:45:03.760Z,36.30
2018-05-03T12:47:30.769Z,36.30
2018-05-03T12:49:58.008Z,36.40
2018-05-03T12:52:24.998Z,36.30
2018-05-03T12:54:52.013Z,36.30
2018-05-03T12:57:19.796Z,36.40
2018-05-03T12:59:47.570Z,36.40
2018-05-03T13:02:14.850Z,36.40
2018-05-03T13:04:41.981Z,36.30
2018-05-03T13:07:08.970Z,36.30
2018-05-03T13:09:36.168Z,36.30
2018-05-03T13:12:03.186Z,36.30
2018-05-03T13:14:30.179Z,36.30
2018-05-03T13:16:57.181Z,36.30
2018-05-03T13:19:24.168Z,36.40
2018-05-03T13:21:51.199Z,37.00
2018-05-03T13:24:18.184Z,36.30
2018-05-03T13:26:45.185Z,36.30
2018-05-03T13:29:12.943Z,36.40
2018-05-03T13:31:39.930Z,36.40
2018-05-03T13:34:06.926Z,36.30
2018-05-03T13:36:33.916Z,36.30
2018-05-03T13:39:00.907Z,36.30
2018-05-03T13:41:28.188Z,36.30
2018-05-03T13:43:55.187Z,36.30
2018-05-03T13:46:22.184Z,36.40
2018-05-03T13:48:49.182Z,36.40
2018-05-03T13:51:16.210Z,36.40
2018-05-03T13:53:43.203Z,35.40
2018-05-03T13:56:10.220Z,34.80
2018-05-03T13:58:37.221Z,36.00
2018-05-03T14:01:05.016Z,36.30
2018-05-03T14:03:32.023Z,36.30
2018-05-03T14:05:59.013Z,36.30
2018-05-03T14:08:26.026Z,36.40
2018-05-03T14:10:53.807Z,36.50
2018-05-03T14:13:20.855Z,36.50
2018-05-03T14:15:47.838Z,36.50
2018-05-03T14:18:14.822Z,36.60
2018-05-03T14:20:42.612Z,36.70
2018-05-03T14:23:09.607Z,36.60
2018-05-03T14:25:38.120Z,36.20
2018-05-03T14:28:05.116Z,36.20
2018-05-03T14:30:32.315Z,35.60
2018-05-03T14:33:00.103Z,36.20
2018-05-03T14:35:27.221Z,36.20
2018-05-03T14:37:54.210Z,36.20
2018-05-03T14:40:21.255Z,36.30
2018-05-03T14:42:48.242Z,36.30
2018-05-03T14:45:15.223Z,36.40
2018-05-03T14:47:43.009Z,36.40
2018-05-03T14:50:10.064Z,36.40
2018-05-03T14:52:37.912Z,36.50
2018-05-03T14:55:04.894Z,36.60
2018-05-03T14:57:31.924Z,36.60
2018-05-03T14:59:59.083Z,36.70
2018-05-03T15:02:27.531Z,36.70
2018-05-03T15:04:54.802Z,36.70
2018-05-03T15:07:21.808Z,36.60
2018-05-03T15:09:48.889Z,36.60
2018-05-03T15:12:15.895Z,36.50
2018-05-03T15:14:42.883Z,36.60
2018-05-03T15:17:09.883Z,36.50
2018-05-03T15:19:36.880Z,36.60
2018-05-03T15:22:03.867Z,36.60
2018-05-03T15:24:30.856Z,36.60
2018-05-03T15:26:57.861Z,36.60
2018-05-03T15:29:24.847Z,36.60
2018-05-03T15:31:51.848Z,36.50
2018-05-03T15:34:18.855Z,36.60
2018-05-03T15:36:45.845Z,36.60
2018-05-03T15:39:12.899Z,36.60
2018-05-03T15:41:39.884Z,36.60
2018-05-03T15:44:06.886Z,36.60
2018-05-03T15:46:33.888Z,36.60
2018-05-03T15:49:00.900Z,36.60
2018-05-03T15:51:27.909Z,36.50
2018-05-03T15:53:54.917Z,36.60
2018-05-03T15:56:21.917Z,36.60
2018-05-03T15:58:48.933Z,36.60
2018-05-03T16:01:16.088Z,36.70
2018-05-03T16:03:43.073Z,36.70
2018-05-03T16:06:10.067Z,36.60
2018-05-03T16:08:37.068Z,36.60
2018-05-03T16:11:04.274Z,36.70
2018-05-03T16:13:31.273Z,36.70
2018-05-03T16:15:58.290Z,36.80
2018-05-03T16:18:25.277Z,36.90
2018-05-03T16:20:53.083Z,36.90
2018-05-03T16:23:20.079Z,36.90
2018-05-03T16:25:47.097Z,36.90
2018-05-03T16:28:14.083Z,36.80
2018-05-03T16:30:41.876Z,36.80
2018-05-03T16:33:09.444Z,36.80
2018-05-03T16:35:36.438Z,36.70
2018-05-03T16:38:03.439Z,36.70
2018-05-03T16:40:30.481Z,36.90
2018-05-03T16:42:57.502Z,36.80
2018-05-03T16:45:24.530Z,37.00
2018-05-03T16:47:51.534Z,37.00
2018-05-03T16:50:18.668Z,37.20
2018-05-03T16:52:45.668Z,37.30
2018-05-03T16:55:12.674Z,37.30
2018-05-03T16:57:39.681Z,37.20
2018-05-03T17:00:07.473Z,37.30
2018-05-03T17:02:34.480Z,37.20
2018-05-03T17:05:01.480Z,37.30
2018-05-03T17:07:28.480Z,37.20
2018-05-03T17:09:56.276Z,37.50
2018-05-03T17:12:23.279Z,37.50
2018-05-03T17:14:50.263Z,37.40
2018-05-03T17:17:17.998Z,37.30
2018-05-03T17:19:45.118Z,37.20
2018-05-03T17:22:12.121Z,37.00
2018-05-03T17:24:39.110Z,37.20
2018-05-03T17:27:06.119Z,37.20
2018-05-03T17:29:33.280Z,38.10
2018-05-03T17:32:00.265Z,37.20
2018-05-03T17:34:28.772Z,37.20
2018-05-03T17:36:55.757Z,37.20
2018-05-03T17:39:22.776Z,37.10
2018-05-03T17:41:50.557Z,37.00
2018-05-03T17:44:17.627Z,36.90
2018-05-03T17:46:45.332Z,37.00
2018-05-03T17:49:12.332Z,37.00
2018-05-03T17:51:39.324Z,37.00
2018-05-03T17:54:06.324Z,37.00
2018-05-03T17:56:33.322Z,37.00
2018-05-03T17:59:01.100Z,37.00
2018-05-03T18:01:28.104Z,37.00
2018-05-03T18:03:55.118Z,37.00
2018-05-03T18:06:22.103Z,37.00
2018-05-03T18:08:49.126Z,36.90
2018-05-03T18:11:16.360Z,36.90
2018-05-03T18:13:43.359Z,37.00
2018-05-03T18:16:10.368Z,36.80
2018-05-03T18:18:37.372Z,36.90
2018-05-03T18:21:05.200Z,37.00
2018-05-03T18:23:33.015Z,36.90
2018-05-03T18:26:00.081Z,36.90
2018-05-03T18:28:27.073Z,36.90
2018-05-03T18:30:55.619Z,37.00
2018-05-03T18:33:22.850Z,36.90
2018-05-03T18:35:51.027Z,36.90
2018-05-03T18:38:18.021Z,37.00
2018-05-03T18:40:45.054Z,36.90
2018-05-03T18:43:12.039Z,37.00
2018-05-03T18:45:39.042Z,36.90
2018-05-03T18:48:06.041Z,36.90
2018-05-03T18:50:33.852Z,36.90
2018-05-03T18:53:00.865Z,36.90
2018-05-03T18:55:27.848Z,36.90
2018-05-03T19:00:36.372Z,37.20
2018-05-03T19:03:03.372Z,37.20
2018-05-03T19:05:37.454Z,37.30
2018-05-03T19:10:47.764Z,37.20
2018-05-03T19:13:14.839Z,37.20
2018-05-03T19:15:41.842Z,37.20
2018-05-03T19:18:08.863Z,37.20
2018-05-03T19:20:35.952Z,37.20
2018-05-03T19:23:12.728Z,37.30
2018-05-03T19:25:46.614Z,37.30
2018-05-03T19:30:52.549Z,37.30
2018-05-03T19:33:19.573Z,37.20
2018-05-03T19:35:46.583Z,37.00
2018-05-03T19:38:13.592Z,37.00
2018-05-03T19:40:40.811Z,37.00
2018-05-03T19:43:08.572Z,37.10
2018-05-03T19:45:35.582Z,37.10
2018-05-03T19:48:02.582Z,37.10
2018-05-03T19:50:29.757Z,37.10
2018-05-03T19:52:56.749Z,37.00
2018-05-03T19:55:23.763Z,37.00
2018-05-03T19:57:50.755Z,37.00
2018-05-03T20:00:18.595Z,37.00
2018-05-03T20:02:45.608Z,37.00
2018-05-03T20:05:12.615Z,37.00
2018-05-03T20:07:39.615Z,37.20
2018-05-03T20:10:06.741Z,37.00
2018-05-03T20:12:36.461Z,37.00
2018-05-03T20:15:03.486Z,37.30
2018-05-03T20:17:31.278Z,37.30
2018-05-03T20:19:58.419Z,37.20
2018-05-03T20:22:25.490Z,37.30
2018-05-03T20:24:52.552Z,37.30
2018-05-03T20:27:23.006Z,37.30
2018-05-03T20:29:50.911Z,37.30
2018-05-03T20:32:18.648Z,37.20
2018-05-03T20:34:46.422Z,37.20
2018-05-03T20:37:13.424Z,37.20
2018-05-03T20:39:40.548Z,37.20
2018-05-03T20:42:07.552Z,37.20
2018-05-03T20:44:34.729Z,37.10
2018-05-03T20:47:01.717Z,37.10
2018-05-03T20:49:29.127Z,37.10
2018-05-03T20:51:56.211Z,37.10
2018-05-03T20:54:23.167Z,37.10
2018-05-03T20:56:51.666Z,37.20
2018-05-03T20:59:19.426Z,37.20
2018-05-03T21:01:46.438Z,37.20
2018-05-03T21:04:14.085Z,37.20
2018-05-03T21:06:41.068Z,37.20
2018-05-03T21:09:08.067Z,37.30
2018-05-03T21:11:35.087Z,37.30
2018-05-03T21:14:02.896Z,37.30
2018-05-03T21:16:29.887Z,37.20
2018-05-03T21:18:56.871Z,37.30
2018-05-03T21:21:25.186Z,37.30
2018-05-03T21:23:53.699Z,37.30
2018-05-03T21:26:20.763Z,37.40
2018-05-03T21:28:47.707Z,37.40
2018-05-03T21:31:14.884Z,37.30
2018-05-03T21:33:41.890Z,37.30
2018-05-03T21:36:08.885Z,37.30
2018-05-03T21:38:35.879Z,37.30
2018-05-03T21:41:04.801Z,37.30
2018-05-03T21:43:32.437Z,37.30
2018-05-03T21:45:59.507Z,37.30
2018-05-03T21:48:27.280Z,37.40
2018-05-03T21:50:54.344Z,37.40
2018-05-03T21:53:21.352Z,38.10
2018-05-03T21:55:49.104Z,37.40
2018-05-03T21:58:16.104Z,37.40
2018-05-03T22:00:43.151Z,37.40
2018-05-03T22:03:10.163Z,37.40
2018-05-03T22:05:37.125Z,37.40
2018-05-03T22:08:04.134Z,37.40
2018-05-03T22:10:31.327Z,37.40
2018-05-03T22:12:58.315Z,38.10
2018-05-03T22:15:25.292Z,37.40
2018-05-03T22:17:53.271Z,37.40
2018-05-03T22:20:20.342Z,37.40
2018-05-03T22:22:47.323Z,37.40
2018-05-03T22:25:14.341Z,37.40
2018-05-03T22:27:41.347Z,37.40
2018-05-03T22:30:09.137Z,37.40
2018-05-03T22:32:36.144Z,37.40
2018-05-03T22:35:03.166Z,37.40
2018-05-03T22:37:30.150Z,37.40
2018-05-03T22:39:57.949Z,37.40
2018-05-03T22:42:24.948Z,37.40
2018-05-03T22:44:53.661Z,37.50
2018-05-03T22:47:20.649Z,37.40
2018-05-03T22:49:47.774Z,37.50
2018-05-03T22:52:14.776Z,37.50
2018-05-03T22:54:41.776Z,37.40
2018-05-03T22:57:08.767Z,37.40
2018-05-03T22:59:35.957Z,37.40
2018-05-03T23:02:02.957Z,37.40
2018-05-03T23:04:29.958Z,37.50
2018-05-03T23:06:56.948Z,38.00
2018-05-03T23:09:23.944Z,37.50
2018-05-03T23:11:50.941Z,37.50
2018-05-03T23:14:17.935Z,37.50
2018-05-03T23:16:44.936Z,37.50
2018-05-03T23:19:11.928Z,37.50
2018-05-03T23:21:38.941Z,37.50
2018-05-03T23:24:05.935Z,37.50
2018-05-03T23:26:32.928Z,37.50
2018-05-03T23:28:59.928Z,37.50
2018-05-03T23:31:26.982Z,37.40
2018-05-03T23:33:53.970Z,37.40
2018-05-03T23:36:22.484Z,37.50
2018-05-03T23:38:49.474Z,37.50
2018-05-03T23:41:16.603Z,37.40
2018-05-03T23:43:43.604Z,37.50
2018-05-03T23:46:10.649Z,37.40
2018-05-03T23:48:37.644Z,37.40
2018-05-03T23:51:04.799Z,37.40
2018-05-03T23:53:31.792Z,37.50
2018-05-03T23:55:58.787Z,37.40
2018-05-03T23:58:25.777Z,37.40
